Campiña-No se requiere un especial cuidado respecto a la situación meteorológica.   -   No hay avisos

Informes METAR

 

LEZL - Sevilla, Spain
Distancia de la estación: ENE 8km
Actualización: 28/10/2021 00:30
Despejado
Despejado
 Viento de variable
Viento: variable 4 km/h
Temperatura: 18°C
Rocío: 11°C
Humedad: 64%
Barómetro: 1019 hPa
Resumen: Despejado
Visibilidad: mayor de 10 km
2021/10/27 22:30 LEZL 272230Z VRB02KT CAVOK 18/11 Q1019 NOSIG
LEMO - Morón, Spain
Distancia de la estación: SE 43km
Actualización: 28/10/2021 00:30
Despejado
Despejado
 Viento de S
Viento: S 13 km/h
Temperatura: 19°C
Rocío: 10°C
Humedad: 56%
Barómetro: 1018 hPa
Resumen: Despejado
Visibilidad: mayor de 10 km
2021/10/27 22:30 LEMO 272230Z 17007KT CAVOK 19/10 Q1018 NOSIG
LEJR - Jeréz, Spain
Distancia de la estación: S 71km
Actualización: 28/10/2021 00:30
Despejado
Despejado
 Viento de E
Viento: E 11 km/h
Temperatura: 17°C
Rocío: 11°C
Humedad: 68%
Barómetro: 1019 hPa
Resumen: Despejado
Visibilidad: mayor de 10 km
2021/10/27 22:30 LEJR 272230Z AUTO 09006KT CAVOK 17/11 Q1019
 
LERT - Rota, Spain
Distancia de la estación: SSO 89km
Actualización: 28/10/2021 00:30
Despejado
Despejado
 Viento de ESE
Viento: ESE 20 km/h
Temperatura: 20°C
Rocío: 14°C
Humedad: 69%
Barómetro: 1018 hPa
Resumen: Despejado
Visibilidad: mayor de 10 km
2021/10/27 22:30 LERT 272230Z 11011KT CAVOK 20/14 Q1018 NOSIG
LEMG - Málaga, Spain
Distancia de la estación: ESE 157km
Actualización: 28/10/2021 00:30
Cubierto
Cubierto
 Viento de calm
Viento: Calma
Temperatura: 18°C
Rocío: 15°C
Humedad: 83%
Barómetro: 1020 hPa
Nubes: Cubierto
Visibilidad: 10 km
Detalles de las nubes: Muy nuboso 610 m
Cubierto 762 m
2021/10/27 22:30 LEMG 272230Z 00000KT 9999 BKN020 OVC025 18/15 Q1020 NOSIG
LEBA - Córdoba, Spain
Distancia de la estación: ENE 115km
Actualización: 28/10/2021 00:30
Despejado
Despejado
 Viento de SSO
Viento: SSO 6 km/h
Temperatura: 14°C
Rocío: 8°C
Humedad: 67%
Barómetro: 1019 hPa
Resumen: Despejado
Visibilidad: mayor de 10 km
2021/10/27 22:30 LEBA 272230Z AUTO 21003KT CAVOK 14/08 Q1019
 
LEGR - Granada, Spain
Distancia de la estación: E 198km
Actualización: 28/10/2021 00:30
Despejado
Despejado
 Viento de calm
Viento: Calma
Temperatura: 14°C
Rocío: 10°C
Humedad: 77%
Barómetro: 1021 hPa
Resumen: Despejado
Visibilidad: mayor de 10 km
2021/10/27 22:30 LEGR 272230Z AUTO 00000KT CAVOK 14/10 Q1021
LEAM - Almería, Spain
Distancia de la estación: E 326km
Actualización: 28/10/2021 00:30
Despejado
Despejado
 Viento de N
Viento: N 11 km/h
Temperatura: 18°C
Rocío: 13°C
Humedad: 73%
Barómetro: 1020 hPa
Resumen: Despejado
Visibilidad: mayor de 10 km
2021/10/27 22:30 LEAM 272230Z AUTO 36006KT CAVOK 18/13 Q1020
LEMD - Madrid/Barajas, Spain
Distancia de la estación: NNE 402km
Actualización: 28/10/2021 00:30
Despejado
Despejado
 Viento de SSO
Viento: SSO 6 km/h
Temperatura: 10°C
Rocío: 5°C
Humedad: 71%
Barómetro: 1020 hPa
Resumen: Despejado
Visibilidad: mayor de 10 km
2021/10/27 22:30 LEMD 272230Z 21003KT CAVOK 10/05 Q1020 NOSIG
 
LEVD - Valladolid, Spain
Distancia de la estación: N 492km
Actualización: 28/10/2021 00:30
Despejado
Despejado
 Viento de OSO
Viento: OSO 6 km/h
Temperatura: 9°C
Rocío: 2°C
Humedad: 62%
Barómetro: 1020 hPa
Resumen: Despejado
Visibilidad: mayor de 10 km
2021/10/27 22:30 LEVD 272230Z AUTO 24003KT CAVOK 09/02 Q1020
LEBL - Barcelona, Spain
Distancia de la estación: NE 816km
Actualización: 28/10/2021 00:30
Poco nuboso
Poco nuboso
 Viento de NO
Viento: NO 11 km/h
Temperatura: 14°C
Rocío: 12°C
Humedad: 88%
Barómetro: 1021 hPa
Nubes: Poco nuboso
Visibilidad: 10 km
Detalles de las nubes: Poco nuboso 610 m
2021/10/27 22:30 LEBL 272230Z 32006KT 9999 FEW020 14/12 Q1021 NOSIG
LEVC - Valencia, Spain
Distancia de la estación: ENE 535km
Actualización: 28/10/2021 00:30
Parcialmente nuboso
Parcialmente nuboso
 Viento de ONO
Viento: ONO 6 km/h
Temperatura: 15°C
Rocío: 13°C
Humedad: 88%
Barómetro: 1021 hPa
Nubes: Parcialmente nuboso
Visibilidad: 10 km
Detalles de las nubes: Parcialmente nuboso 762 m
2021/10/27 22:30 LEVC 272230Z 29003KT 9999 SCT025 15/13 Q1021 NOSIG